.
WxDataArchive / Data Records for 2007-06-01
2007-05-31 June 2007 2007-06-02

Data Records for Friday, 01 June 2007

Time	Temp	Chill	HIndex	Humid	Dewpt	 Wind 	HiWind	WindDir	Rain 	Barom 
-----	----	-----	------	-----	-----	------	------	-------	-----	----- 
00:00	73.0	73.0	73.0	55	55.9	0	1	225	0.00	29.975 
00:05	73.0	73.0	73.0	55	55.9	0	0	---	0.00	29.975 
00:10	72.8	72.8	72.8	56	56.2	0	0	---	0.00	29.977 
00:15	72.7	72.7	72.7	56	56.1	0	0	---	0.00	29.978 
00:20	72.5	72.5	72.5	56	55.9	0	0	---	0.00	29.977 
00:25	72.5	72.5	72.5	58	56.9	0	0	---	0.00	29.976 
00:30	72.1	72.1	72.1	60	57.4	0	0	---	0.00	29.974 
00:35	72.0	72.0	72.0	59	56.9	0	0	---	0.00	29.970 
00:40	71.8	71.8	71.8	61	57.6	0	0	---	0.00	29.969 
00:45	71.5	71.5	71.5	61	57.3	0	0	---	0.00	29.967 
00:50	71.3	71.3	71.3	61	57.1	0	0	---	0.00	29.969 
00:55	71.1	71.1	71.1	62	57.4	0	0	---	0.00	29.969 
01:00	70.9	70.9	70.9	62	57.2	0	0	---	0.00	29.968 
01:05	70.9	70.9	70.9	64	58.1	0	0	---	0.00	29.967 
01:10	70.8	70.8	70.8	65	58.4	0	0	---	0.00	29.968 
01:15	70.8	70.8	70.8	65	58.4	0	0	---	0.00	29.967 
01:20	70.6	70.6	70.6	65	58.2	0	0	---	0.00	29.967 
01:25	70.6	70.6	70.6	65	58.2	0	0	---	0.00	29.965 
01:30	70.6	70.6	70.6	67	59.1	0	0	---	0.00	29.964 
01:35	70.4	70.4	70.4	68	59.3	0	0	---	0.00	29.964 
01:40	70.4	70.4	70.4	69	59.7	0	1	225	0.00	29.963 
01:45	70.3	70.3	70.3	69	59.6	0	0	---	0.00	29.963 
01:50	70.3	70.3	70.3	69	59.6	0	0	---	0.00	29.963 
01:55	70.1	70.1	70.1	68	59.0	0	0	---	0.00	29.963 
02:00	69.9	69.9	69.9	69	59.3	0	0	---	0.00	29.963 
02:05	69.9	69.9	69.9	69	59.3	0	0	---	0.00	29.963 
02:10	69.8	69.8	69.8	68	58.7	0	0	---	0.00	29.964 
02:15	69.8	69.8	69.8	69	59.2	0	0	---	0.00	29.963 
02:20	69.8	69.8	69.8	69	59.2	0	0	---	0.00	29.964 
02:25	69.8	69.8	69.8	72	60.4	0	0	---	0.00	29.963 
02:30	69.4	69.4	69.4	76	61.5	0	0	---	0.00	29.953 
02:35	69.1	69.1	69.1	78	61.9	0	1	225	0.00	29.954 
02:40	68.9	68.9	68.9	80	62.5	0	0	---	0.00	29.956 
02:45	68.6	68.6	68.6	81	62.5	0	0	---	0.00	29.954 
02:50	68.4	68.4	68.4	81	62.3	0	0	---	0.00	29.954 
02:55	68.3	68.3	68.3	82	62.6	0	0	---	0.00	29.953 
03:00	68.1	68.1	68.1	84	63.1	0	1	225	0.00	29.951 
03:05	68.1	68.1	68.1	84	63.1	0	1	225	0.00	29.951 
03:10	68.1	68.1	68.1	85	63.4	0	0	---	0.00	29.953 
03:15	68.1	68.1	68.1	85	63.4	0	0	---	0.00	29.954 
03:20	67.9	67.9	67.9	85	63.2	0	0	---	0.00	29.957 
03:25	67.9	67.9	67.9	85	63.2	0	0	---	0.00	29.957 
03:30	67.9	67.9	67.9	85	63.2	0	0	---	0.00	29.954 
03:35	67.9	67.9	67.9	85	63.2	0	0	---	0.00	29.954 
03:40	67.8	67.8	67.8	84	62.8	0	0	---	0.00	29.953 
03:45	67.8	67.8	67.8	84	62.8	0	0	---	0.00	29.955 
03:50	67.8	67.8	67.8	84	62.8	0	0	---	0.00	29.955 
03:55	67.6	67.6	67.6	84	62.6	0	0	---	0.00	29.953 
04:00	67.6	67.6	67.6	84	62.6	0	0	---	0.00	29.950 
04:05	67.4	67.4	67.4	84	62.4	0	0	---	0.00	29.951 
04:10	67.1	67.1	67.1	85	62.4	0	1	225	0.00	29.951 
04:15	66.9	66.9	66.9	85	62.2	0	0	---	0.00	29.947 
04:20	66.8	66.8	66.8	85	62.1	0	0	---	0.00	29.946 
04:25	66.6	66.6	66.6	86	62.3	0	0	---	0.00	29.950 
04:30	66.4	66.4	66.4	86	62.1	0	0	---	0.00	29.950 
04:35	66.3	66.3	66.3	86	62.0	0	0	---	0.00	29.950 
04:40	66.3	66.3	66.3	86	62.0	0	0	---	0.00	29.949 
04:45	66.1	66.1	66.1	87	62.1	0	0	---	0.00	29.949 
04:50	66.1	66.1	66.1	87	62.1	0	0	---	0.00	29.950 
04:55	66.1	66.1	66.1	87	62.1	0	0	---	0.00	29.949 
05:00	66.1	66.1	66.1	87	62.1	0	0	---	0.00	29.950 
05:05	66.1	66.1	66.1	88	62.4	0	0	---	0.00	29.951 
05:10	66.0	66.0	66.0	88	62.3	0	0	---	0.00	29.948 
05:15	66.0	66.0	66.0	88	62.3	0	0	---	0.00	29.949 
05:20	66.0	66.0	66.0	88	62.3	0	0	---	0.00	29.952 
05:25	65.8	65.8	65.8	88	62.1	0	0	---	0.00	29.951 
05:30	65.8	65.8	65.8	88	62.1	0	0	---	0.00	29.951 
05:35	65.8	65.8	65.8	89	62.5	0	1	225	0.00	29.952 
05:40	66.0	66.0	66.0	89	62.7	0	0	---	0.00	29.953 
05:45	66.1	66.1	66.1	89	62.8	0	0	---	0.00	29.953 
05:50	66.3	66.3	66.3	89	63.0	0	1	225	0.00	29.952 
05:55	66.4	66.4	66.4	88	62.7	0	1	225	0.00	29.950 
06:00	66.8	66.8	66.8	86	62.5	0	1	225	0.00	29.944 
06:05	67.3	67.3	67.3	85	62.6	1	2	225	0.00	29.945 
06:10	67.6	67.6	67.6	83	62.2	1	2	225	0.00	29.945 
06:15	68.1	68.1	68.1	79	61.3	1	2	225	0.00	29.945 
06:20	68.4	68.4	68.4	77	60.9	1	2	225	0.00	29.942 
06:25	68.8	68.8	68.8	77	61.3	1	3	202	0.00	29.941 
06:30	69.1	69.1	69.1	76	61.2	1	2	112	0.00	29.941 
06:35	69.6	69.6	69.6	77	62.1	1	2	112	0.00	29.942 
06:40	69.8	69.8	69.8	76	61.9	0	2	112	0.00	29.941 
06:45	69.9	69.9	69.9	73	60.8	1	4	112	0.00	29.944 
06:50	70.3	70.3	70.3	74	61.6	1	3	112	0.00	29.945 
06:55	70.3	70.3	70.3	73	61.2	1	3	90	0.00	29.945 
07:00	70.4	70.4	70.4	73	61.3	1	3	112	0.00	29.945 
07:05	70.4	70.4	70.4	73	61.3	2	4	90	0.00	29.945 
07:10	70.3	70.3	70.3	73	61.2	1	3	90	0.00	29.948 
07:15	70.1	70.1	70.1	73	61.0	0	2	90	0.00	29.951 
07:20	70.3	70.3	70.3	73	61.2	0	2	90	0.00	29.951 
07:25	70.4	70.4	70.4	72	60.9	0	1	90	0.00	29.952 
07:30	70.6	70.6	70.6	71	60.7	1	3	90	0.00	29.952 
07:35	70.4	70.4	70.4	70	60.1	1	3	90	0.00	29.954 
07:40	70.4	70.4	70.4	70	60.1	0	2	90	0.00	29.955 
07:45	70.8	70.8	70.8	70	60.5	0	2	90	0.00	29.955 
07:50	71.1	71.1	71.1	70	60.8	1	2	90	0.00	29.957 
07:55	71.3	71.3	71.3	68	60.2	0	2	90	0.00	29.959 
08:00	71.5	71.5	71.5	69	60.8	0	0	---	0.00	29.963 
08:05	71.6	71.6	71.6	66	59.6	0	1	90	0.00	29.966 
08:10	71.8	71.8	71.8	69	61.1	0	1	90	0.00	29.965 
08:15	71.8	71.8	71.8	66	59.8	0	1	90	0.00	29.966 
08:20	72.1	72.1	72.1	67	60.5	0	2	90	0.00	29.966 
08:25	72.3	72.3	72.3	65	59.9	0	2	90	0.00	29.967 
08:30	73.0	73.0	73.0	65	60.5	0	1	90	0.00	29.963 
08:35	73.5	73.5	73.5	65	61.0	1	2	90	0.00	29.963 
08:40	74.0	74.0	74.0	64	61.0	1	3	90	0.00	29.965 
08:45	74.4	74.4	74.4	61	60.1	1	4	90	0.00	29.965 
08:50	75.1	75.1	77.3	62	61.2	2	4	90	0.00	29.964 
08:55	75.6	75.6	77.7	61	61.2	1	4	112	0.00	29.964 
09:00	76.3	76.3	78.2	58	60.4	0	2	112	0.00	29.964 
09:05	77.0	77.0	78.7	57	60.6	1	4	112	0.00	29.963 
09:10	77.4	77.4	79.1	59	61.9	1	3	112	0.00	29.962 
09:15	77.6	77.6	79.1	54	59.6	1	3	90	0.00	29.962 
09:20	78.1	78.1	79.6	56	61.1	1	3	90	0.00	29.964 
09:25	78.3	78.3	79.7	54	60.3	1	3	90	0.00	29.962 
09:30	78.8	78.8	80.1	54	60.7	0	2	112	0.00	29.959 
09:35	79.2	79.2	80.0	48	57.8	2	5	112	0.00	29.958 
09:40	79.4	79.4	80.4	51	59.7	1	4	90	0.00	29.960 
09:45	79.6	79.6	80.5	51	59.9	1	2	90	0.00	29.957 
09:50	79.6	79.6	80.5	50	59.3	1	3	90	0.00	29.955 
09:55	80.1	80.1	81.0	51	60.3	0	2	135	0.00	29.950 
10:00	80.7	80.7	81.4	50	60.3	1	3	135	0.00	29.948 
10:05	80.9	80.9	81.6	50	60.5	1	4	270	0.00	29.950 
10:10	81.1	81.1	81.8	50	60.7	1	4	90	0.00	29.950 
10:15	81.1	81.1	82.0	51	61.2	1	2	90	0.00	29.950 
10:20	81.1	81.1	82.1	52	61.8	1	2	90	0.00	29.951 
10:25	81.2	81.2	82.2	52	61.9	2	5	270	0.00	29.950 
10:30	81.1	81.1	82.1	52	61.8	2	5	270	0.00	29.950 
10:35	81.4	81.4	82.5	53	62.6	1	3	270	0.00	29.950 
10:40	81.4	81.4	82.1	50	60.9	2	5	270	0.00	29.947 
10:45	81.6	81.6	82.8	53	62.8	1	3	248	0.00	29.947 
10:50	82.0	82.0	83.1	52	62.6	1	3	248	0.00	29.945 
10:55	82.2	82.2	82.8	49	61.1	2	5	248	0.00	29.942 
11:00	82.4	82.4	83.2	50	61.9	2	9	90	0.00	29.940 
11:05	82.6	82.6	83.6	51	62.6	1	5	248	0.00	29.942 
11:10	82.4	82.4	83.2	50	61.9	2	5	270	0.00	29.943 
11:15	82.2	82.2	83.3	52	62.8	2	4	270	0.00	29.940 
11:20	82.6	82.6	83.6	51	62.6	1	4	270	0.00	29.935 
11:25	82.6	82.6	83.4	50	62.0	2	5	248	0.00	29.936 
11:30	82.6	82.6	83.4	50	62.0	2	5	292	0.00	29.935 
11:35	83.0	83.0	83.9	50	62.4	2	5	270	0.00	29.935 
11:40	82.8	82.8	83.5	49	61.7	2	9	270	0.00	29.935 
11:45	82.4	82.4	83.2	50	61.9	2	4	248	0.00	29.934 
11:50	82.4	82.4	83.2	50	61.9	2	5	270	0.00	29.935 
11:55	82.2	82.2	83.5	53	63.3	1	4	112	0.00	29.934 
12:00	82.4	82.4	83.5	52	63.0	1	3	270	0.00	29.932 
12:05	82.6	82.6	83.4	50	62.0	2	5	248	0.00	29.932 
12:10	82.8	82.8	83.7	50	62.2	2	6	270	0.00	29.927 
12:15	83.6	83.6	84.4	49	62.4	2	4	248	0.00	29.928 
12:20	83.8	83.8	84.7	49	62.6	1	4	270	0.00	29.925 
12:25	84.0	84.0	84.7	48	62.2	2	3	270	0.00	29.923 
12:30	83.8	83.8	84.5	48	62.0	2	4	248	0.00	29.922 
12:35	83.6	83.6	84.4	49	62.4	2	6	270	0.00	29.921 
12:40	84.1	84.1	84.8	48	62.3	1	4	270	0.00	29.921 
12:45	84.3	84.3	84.9	47	61.8	2	4	248	0.00	29.919 
12:50	84.0	84.0	84.3	46	61.0	3	4	270	0.00	29.920 
12:55	84.3	84.3	84.7	46	61.2	2	4	270	0.00	29.920 
13:00	84.7	84.7	85.4	47	62.2	2	4	248	0.00	29.917 
13:05	84.9	84.9	85.6	47	62.4	2	4	315	0.00	29.918 
13:10	84.9	84.9	85.8	48	63.0	2	5	270	0.00	29.915 
13:15	85.1	85.1	85.7	46	62.0	2	5	270	0.00	29.910 
13:20	85.1	85.1	85.9	47	62.6	1	4	270	0.00	29.905 
13:25	85.5	85.5	86.6	48	63.5	1	3	270	0.00	29.904 
13:30	85.5	85.5	85.7	44	61.1	2	4	270	0.00	29.900 
13:35	85.5	85.5	85.9	45	61.7	3	5	270	0.00	29.901 
13:40	85.5	85.5	86.2	46	62.3	2	6	248	0.00	29.899 
13:45	85.7	85.7	86.2	45	61.9	2	5	248	0.00	29.898 
13:50	85.7	85.7	86.0	44	61.2	2	5	270	0.00	29.895 
13:55	85.7	85.7	86.2	45	61.9	2	4	248	0.00	29.894 
14:00	85.7	85.7	86.2	45	61.9	3	5	270	0.00	29.890 
14:05	85.7	85.7	86.0	44	61.2	2	4	292	0.00	29.889 
14:10	85.7	85.7	86.0	44	61.2	1	5	248	0.00	29.890 
14:15	85.3	85.3	85.5	44	60.9	2	4	248	0.00	29.889 
14:20	85.9	85.9	86.0	43	60.8	2	5	270	0.00	29.888 
14:25	86.3	86.3	86.5	43	61.1	1	4	248	0.00	29.884 
14:30	86.1	86.1	86.7	45	62.2	1	4	292	0.00	29.881 
14:35	86.5	86.5	87.0	44	62.0	2	4	248	0.00	29.878 
14:40	86.5	86.5	86.7	43	61.3	2	6	292	0.00	29.874 
14:45	86.5	86.5	86.7	43	61.3	1	4	270	0.00	29.872 
14:50	86.5	86.5	86.5	42	60.6	2	5	292	0.00	29.872 
14:55	86.5	86.5	86.7	43	61.3	2	4	270	0.00	29.869 
15:00	86.5	86.5	86.3	41	60.0	2	4	270	0.00	29.871 
15:05	86.5	86.5	86.5	42	60.6	1	4	270	0.00	29.867 
15:10	87.2	87.2	86.9	40	59.9	1	3	270	0.00	29.865 
15:15	87.4	87.4	87.4	41	60.8	2	4	270	0.00	29.862 
15:20	87.4	87.4	86.9	39	59.4	1	5	248	0.00	29.863 
15:25	87.0	87.0	86.6	40	59.7	1	3	315	0.00	29.859 
15:30	87.0	87.0	86.4	39	59.0	2	4	270	0.00	29.857 
15:35	86.7	86.7	86.0	39	58.7	1	3	315	0.00	29.857 
15:40	86.5	86.5	86.0	40	59.3	1	3	248	0.00	29.855 
15:45	86.7	86.7	86.0	39	58.7	2	5	270	0.00	29.854 
15:50	87.0	87.0	86.4	39	59.0	2	4	248	0.00	29.854 
15:55	87.2	87.2	86.6	39	59.2	2	5	270	0.00	29.853 
16:00	87.4	87.4	86.7	38	58.6	1	4	248	0.00	29.851 
16:05	87.0	87.0	86.2	38	58.3	2	3	270	0.00	29.853 
16:10	86.5	86.5	86.3	41	60.0	1	3	270	0.00	29.849 
16:15	86.3	86.3	86.2	42	60.5	1	2	315	0.00	29.848 
16:20	86.7	86.7	86.7	42	60.8	1	3	270	0.00	29.846 
16:25	87.2	87.2	86.9	40	59.9	2	4	270	0.00	29.849 
16:30	87.4	87.4	86.9	39	59.4	1	3	248	0.00	29.848 
16:35	87.6	87.6	87.4	40	60.3	1	2	248	0.00	29.843 
16:40	87.6	87.6	87.4	40	60.3	1	3	248	0.00	29.842 
16:45	87.6	87.6	87.1	39	59.5	1	3	270	0.00	29.843 
16:50	87.4	87.4	87.1	40	60.1	1	4	248	0.00	29.845 
16:55	87.2	87.2	86.9	40	59.9	1	3	270	0.00	29.846 
17:00	87.0	87.0	86.6	40	59.7	1	3	248	0.00	29.846 
17:05	87.0	87.0	86.4	39	59.0	1	4	248	0.00	29.844 
17:10	86.5	86.5	86.0	40	59.3	1	3	315	0.00	29.844 
17:15	86.3	86.3	86.0	41	59.8	1	3	270	0.00	29.846 
17:20	86.3	86.3	85.8	40	59.1	1	3	248	0.00	29.849 
17:25	86.1	86.1	86.0	42	60.3	0	2	270	0.00	29.845 
17:30	85.9	85.9	85.5	41	59.4	1	3	248	0.00	29.844 
17:35	85.9	85.9	85.7	42	60.1	1	3	292	0.00	29.843 
17:40	85.7	85.7	85.3	41	59.3	1	2	248	0.00	29.843 
17:45	85.7	85.7	85.3	41	59.3	2	4	248	0.00	29.843 
17:50	85.7	85.7	85.3	41	59.3	2	3	292	0.00	29.844 
17:55	85.3	85.3	84.7	40	58.2	1	4	270	0.00	29.843 
18:00	85.1	85.1	84.4	40	58.0	2	4	270	0.00	29.842 
18:05	85.1	85.1	84.6	41	58.7	1	3	292	0.00	29.840 
18:10	85.1	85.1	84.8	42	59.4	1	3	292	0.00	29.839 
18:15	85.1	85.1	84.8	42	59.4	1	3	270	0.00	29.839 
18:20	85.1	85.1	85.0	43	60.1	0	1	270	0.00	29.835 
18:25	85.1	85.1	84.8	42	59.4	1	2	270	0.00	29.835 
18:30	84.9	84.9	84.6	42	59.2	1	2	270	0.00	29.831 
18:35	84.9	84.9	84.6	42	59.2	0	2	292	0.00	29.830 
18:40	84.7	84.7	84.2	41	58.4	0	2	292	0.00	29.827 
18:45	84.5	84.5	84.1	42	58.9	1	3	292	0.00	29.829 
18:50	84.3	84.3	84.1	43	59.3	1	2	248	0.00	29.832 
18:55	84.1	84.1	83.9	43	59.2	0	2	248	0.00	29.837 
19:00	84.0	84.0	83.8	43	59.1	0	1	248	0.00	29.838 
19:05	83.6	83.6	83.5	44	59.3	0	1	248	0.00	29.836 
19:10	83.4	83.4	83.5	45	59.8	0	1	248	0.00	29.839 
19:15	83.2	83.2	83.4	46	60.2	0	0	---	0.00	29.837 
19:20	83.0	83.0	83.2	46	60.1	0	0	---	0.00	29.837 
19:25	82.8	82.8	83.2	47	60.5	0	0	---	0.00	29.836 
19:30	82.4	82.4	82.7	47	60.1	0	0	---	0.00	29.834 
19:35	82.0	82.0	82.3	47	59.8	0	0	---	0.00	29.835 
19:40	81.6	81.6	82.1	48	60.0	0	0	---	0.00	29.837 
19:45	81.2	81.2	81.9	50	60.8	0	0	---	0.00	29.840 
19:50	80.9	80.9	81.6	50	60.5	0	0	---	0.00	29.840 
19:55	80.3	80.3	81.2	51	60.5	0	0	---	0.00	29.840 
20:00	79.9	79.9	80.8	51	60.1	0	0	---	0.00	29.839 
20:05	79.4	79.4	80.5	52	60.2	0	0	---	0.00	29.835 
20:10	78.8	78.8	80.0	53	60.2	0	0	---	0.00	29.836 
20:15	78.3	78.3	79.7	55	60.8	0	0	---	0.00	29.835 
20:20	77.9	77.9	79.4	56	60.9	0	0	---	0.00	29.835 
20:25	77.6	77.6	79.2	57	61.1	0	0	---	0.00	29.836 
20:30	77.0	77.0	78.8	58	61.1	0	0	---	0.00	29.834 
20:35	76.5	76.5	78.4	58	60.6	0	0	---	0.00	29.834 
20:40	76.0	76.0	78.0	60	61.1	0	0	---	0.00	29.832 
20:45	75.6	75.6	77.7	61	61.2	0	0	---	0.00	29.833 
20:50	75.3	75.3	77.4	63	61.8	0	0	---	0.00	29.831 
20:55	75.1	75.1	77.3	63	61.6	0	0	---	0.00	29.832 
21:00	74.7	74.7	74.7	64	61.7	0	0	---	0.00	29.831 
21:05	74.6	74.6	74.6	64	61.6	0	0	---	0.00	29.829 
21:10	74.2	74.2	74.2	64	61.2	0	0	---	0.00	29.831 
21:15	73.9	73.9	73.9	66	61.8	0	0	---	0.00	29.835 
21:20	73.5	73.5	73.5	66	61.4	0	0	---	0.00	29.837 
21:25	73.3	73.3	73.3	67	61.7	0	0	---	0.00	29.837 
21:30	73.0	73.0	73.0	68	61.8	0	0	---	0.00	29.837 
21:35	72.8	72.8	72.8	69	62.0	0	0	---	0.00	29.838 
21:40	72.5	72.5	72.5	69	61.7	0	0	---	0.00	29.840 
21:45	72.3	72.3	72.3	70	62.0	0	0	---	0.00	29.843 
21:50	72.1	72.1	72.1	70	61.8	0	0	---	0.00	29.845 
21:55	72.0	72.0	72.0	70	61.7	0	0	---	0.00	29.845 
22:00	72.0	72.0	72.0	70	61.7	0	0	---	0.00	29.848 
22:05	72.0	72.0	72.0	70	61.7	0	0	---	0.00	29.848 
22:10	72.0	72.0	72.0	69	61.3	0	0	---	0.00	29.849 
22:15	71.8	71.8	71.8	70	61.5	0	0	---	0.00	29.854 
22:20	71.8	71.8	71.8	70	61.5	0	0	---	0.00	29.854 
22:25	71.6	71.6	71.6	70	61.3	0	0	---	0.00	29.855 
22:30	71.5	71.5	71.5	71	61.6	0	0	---	0.00	29.855 
22:35	71.5	71.5	71.5	71	61.6	0	0	---	0.00	29.855 
22:40	71.3	71.3	71.3	72	61.8	0	0	---	0.00	29.856 
22:45	71.1	71.1	71.1	72	61.6	0	0	---	0.00	29.857 
22:50	71.1	71.1	71.1	73	62.0	0	0	---	0.00	29.858 
22:55	70.9	70.9	70.9	73	61.8	0	0	---	0.00	29.857 
23:00	70.9	70.9	70.9	73	61.8	0	1	248	0.00	29.857 
23:05	70.9	70.9	70.9	73	61.8	0	0	---	0.00	29.858 
23:10	70.9	70.9	70.9	73	61.8	0	0	---	0.00	29.858 
23:15	70.9	70.9	70.9	72	61.4	0	0	---	0.00	29.858 
23:20	71.1	71.1	71.1	71	61.2	0	0	---	0.00	29.858 
23:25	71.5	71.5	71.5	71	61.6	0	0	---	0.00	29.858 
23:30	71.8	71.8	71.8	70	61.5	0	0	---	0.00	29.856 
23:35	72.0	72.0	72.0	69	61.3	0	0	---	0.00	29.855 
23:40	71.8	71.8	71.8	69	61.1	0	0	---	0.00	29.854 
23:45	71.8	71.8	71.8	69	61.1	0	0	---	0.00	29.856 
23:50	71.8	71.8	71.8	70	61.5	0	0	---	0.00	29.854 
23:55	71.6	71.6	71.6	70	61.3	0	0	---	0.00	29.854 

CoCoRaHS
IN-AL-39
A2 Web Hosting
Creative Commons License
GoDaddy
Look for:

loaded 2017-12-12 16:36:22 • last modified 2010-11-18 10:43:29
Privacy PolicyDisclaimer
• wx.awcolley.com is powered by PmWiki v.2002016 •
• all content (unless otherwise noted) © 2017 A W Colley